Atlantic Beach, Florida
Current Conditions -  °F | °C
As of 6:52 PM on Monday 24 Nov 2014 (Local Time) from KNRB Reporting Station
Overcast Overcast  
Wind Chill: 73°   Ceiling: 15000
Heat Index: 73°   Visibility: 8mi
Dew Point: 67°   Wind: 0mph
Humidity: 81%   Direction: NA
Pressure: 29.94"   Gusts: NA
Location:  30.33°N, 81.4°W
Report Text: KNRB 242352Z 00000KT 8SM SCT040 BKN150 OVC250 23/19 A2994 RMK AO2 SLP138 T02280194 51021 $
Loading
Personal Weather Stations






























Interactive Weather Map New forecast layout! Learn more

10-Day Weather Forecast

Advertisements
Track Severe Weather on mobile